Time;durP1;ratioP1;P1;durP2;ratioP2;P2;SDS_P1;SDS_P2;PMS_P1;PMS_P2;Temp;Humidity;BMP_temperature;BMP_pressure;BME280_temperature;BME280_humidity;BME280_pressure;Samples;Min_cycle;Max_cycle;Signal;HPM_P1;HPM_P2
2021/11/16 03:48:16;;;;;;;207.57;81.82;;;8.20;99.90;;;;;;4834532;29;20072;-79
2021/11/16 03:50:43;;;;;;;206.80;82.43;;;8.20;99.90;;;;;;4833621;29;20030;-79
2021/11/16 03:53:10;;;;;;;193.15;80.65;;;8.20;99.90;;;;;;4832017;29;20353;-79
2021/11/16 03:55:38;;;;;;;;;;;8.30;99.90;;;;;;4819115;29;20049;-79
2021/11/16 03:58:05;;;;;;;199.23;78.10;;;8.30;99.90;;;;;;4817102;29;19909;-79
2021/11/16 04:00:35;;;;;;;189.43;81.90;;;8.30;99.90;;;;;;4834297;29;20105;-79
2021/11/16 04:03:03;;;;;;;179.57;77.38;;;8.30;99.90;;;;;;4825712;29;20034;-79
2021/11/16 04:05:29;;;;;;;196.52;79.78;;;8.30;99.90;;;;;;4822136;29;20106;-79
2021/11/16 04:07:55;;;;;;;201.82;80.95;;;8.30;99.90;;;;;;4822914;29;20035;-79
2021/11/16 04:10:23;;;;;;;185.20;79.50;;;8.30;99.90;;;;;;4819552;29;20069;-79
2021/11/16 04:12:50;;;;;;;183.02;81.18;;;8.30;99.90;;;;;;4834735;29;20038;-80
2021/11/16 04:15:20;;;;;;;183.23;79.80;;;8.30;99.90;;;;;;4810396;29;20122;-80
2021/11/16 04:17:46;;;;;;;172.63;74.32;;;8.40;99.90;;;;;;4834149;29;20071;-79
2021/11/16 04:20:16;;;;;;;174.60;74.32;;;8.30;99.90;;;;;;4819623;29;20276;-80
2021/11/16 04:22:42;;;;;;;159.60;70.47;;;8.40;99.90;;;;;;4828067;29;20038;-79
2021/11/16 04:25:09;;;;;;;182.80;77.43;;;8.30;99.90;;;;;;4834422;29;20123;-79
2021/11/16 04:27:35;;;;;;;;;;;8.30;99.90;;;;;;4833633;29;20039;-79
2021/11/16 04:30:03;;;;;;;178.43;76.03;;;8.30;99.90;;;;;;4819867;29;19912;-80
2021/11/16 04:32:28;;;;;;;;;;;8.30;99.90;;;;;;4817109;29;20034;-80
2021/11/16 04:34:54;;;;;;;174.17;76.83;;;8.20;99.90;;;;;;4819183;29;19924;-79
2021/11/16 04:37:20;;;;;;;177.13;78.00;;;8.30;99.90;;;;;;4816287;29;20031;-79
2021/11/16 04:39:46;;;;;;;171.63;74.28;;;8.20;99.90;;;;;;4819010;29;20033;-79
2021/11/16 04:42:11;;;;;;;174.07;76.80;;;8.30;99.90;;;;;;4795109;29;20035;-80
2021/11/16 04:44:37;;;;;;;171.48;76.00;;;8.30;99.90;;;;;;4834452;29;20094;-80
2021/11/16 04:47:04;;;;;;;174.17;77.40;;;8.20;99.90;;;;;;4831898;29;20106;-80
2021/11/16 04:49:43;;;;;;;165.18;74.20;;;8.20;99.90;;;;;;4834123;29;20034;-80
2021/11/16 05:02:34;;;;;;;164.88;75.32;;;8.20;99.90;;;;;;4833401;29;20034;-80
2021/11/16 05:02:44;;;;;;;174.23;75.95;;;8.20;99.90;;;;;;4841409;29;20129;-80
2021/11/16 05:05:12;;;;;;;;;;;8.20;99.90;;;;;;4804355;29;20245;-80
2021/11/16 05:07:48;;;;;;;184.70;78.32;;;8.10;99.90;;;;;;4821657;29;20105;-81
2021/11/16 05:10:14;;;;;;;173.95;78.07;;;8.10;99.90;;;;;;4833714;29;20318;-81
2021/11/16 05:12:40;;;;;;;182.15;80.38;;;8.10;99.90;;;;;;4833158;29;20042;-81
2021/11/16 05:15:15;;;;;;;170.43;77.18;;;8.10;99.90;;;;;;4817325;29;20046;-81
2021/11/16 05:17:42;;;;;;;170.05;76.65;;;8.10;99.90;;;;;;4834673;29;20030;-81
2021/11/16 05:20:08;;;;;;;;;;;8.10;99.90;;;;;;4818991;29;20365;-81
2021/11/16 05:22:35;;;;;;;173.90;78.15;;;8.10;99.90;;;;;;4818322;29;19912;-81
2021/11/16 05:25:01;;;;;;;168.05;75.80;;;8.10;99.90;;;;;;4833916;29;20318;-81
2021/11/16 05:27:27;;;;;;;174.85;75.45;;;8.10;99.90;;;;;;4833555;29;20344;-81
2021/11/16 05:29:53;;;;;;;170.80;76.93;;;8.10;99.90;;;;;;4831277;29;20050;-81
2021/11/16 05:32:18;;;;;;;176.05;78.60;;;8.10;99.90;;;;;;4832756;29;20042;-81
2021/11/16 05:34:44;;;;;;;171.93;79.55;;;8.10;99.90;;;;;;4833251;29;20050;-81
2021/11/16 05:37:10;;;;;;;167.90;76.80;;;8.10;99.90;;;;;;4818237;29;20322;-81
2021/11/16 05:39:36;;;;;;;182.32;78.22;;;8.10;99.90;;;;;;4832527;29;20038;-81
2021/11/16 05:42:03;;;;;;;172.97;75.43;;;8.10;99.90;;;;;;4822683;29;20352;-81
2021/11/16 05:44:31;;;;;;;151.00;71.95;;;8.10;99.90;;;;;;4831196;29;20062;-81
2021/11/16 05:46:57;;;;;;;159.20;71.78;;;8.10;99.90;;;;;;4833085;29;20054;-81
2021/11/16 05:49:25;;;;;;;167.30;75.22;;;8.10;99.90;;;;;;4833320;29;20034;-81
2021/11/16 05:51:51;;;;;;;164.02;76.22;;;8.10;99.90;;;;;;4832999;29;20042;-81
2021/11/16 05:54:19;;;;;;;159.15;74.28;;;8.10;99.90;;;;;;4833057;29;20105;-81
2021/11/16 05:56:45;;;;;;;153.85;72.20;;;8.10;99.90;;;;;;4830154;29;20035;-81
2021/11/16 05:59:11;;;;;;;145.70;72.50;;;8.10;99.90;;;;;;4818082;29;20111;-81
2021/11/16 06:01:37;;;;;;;158.95;71.32;;;8.10;99.90;;;;;;4806626;29;20038;-81
2021/11/16 06:04:03;;;;;;;149.88;72.40;;;8.10;99.90;;;;;;4830055;29;20061;-81
2021/11/16 06:06:31;;;;;;;150.10;71.88;;;8.10;99.90;;;;;;4828767;29;20043;-81
2021/11/16 06:08:59;;;;;;;149.20;70.22;;;8.10;99.90;;;;;;4832405;29;20042;-81
2021/11/16 06:11:26;;;;;;;148.27;73.63;;;8.10;99.90;;;;;;4833047;29;20039;-81
2021/11/16 06:13:53;;;;;;;158.15;72.95;;;8.10;99.90;;;;;;4831281;29;20129;-81
2021/11/16 06:16:20;;;;;;;142.07;72.30;;;8.10;99.90;;;;;;4831275;29;20034;-81
2021/11/16 06:18:56;;;;;;;148.25;72.78;;;8.10;99.90;;;;;;4802661;29;20038;-81
2021/11/16 06:21:23;;;;;;;147.02;73.72;;;8.10;99.90;;;;;;4842086;29;20041;-81
2021/11/16 06:23:50;;;;;;;150.43;72.32;;;8.10;99.90;;;;;;4832933;29;20042;-81
2021/11/16 06:26:16;;;;;;;157.93;78.43;;;8.10;99.90;;;;;;4802387;29;20045;-81
2021/11/16 06:28:42;;;;;;;154.68;73.03;;;8.00;99.90;;;;;;4802017;29;20230;-81
2021/11/16 06:31:08;;;;;;;142.95;71.90;;;8.00;99.90;;;;;;4843030;29;20123;-81
2021/11/16 06:33:34;;;;;;;156.43;71.07;;;8.00;99.90;;;;;;4825721;29;20053;-81
2021/11/16 06:36:00;;;;;;;142.60;70.85;;;8.00;99.90;;;;;;4828566;29;20042;-81
2021/11/16 06:38:26;;;;;;;157.35;73.70;;;8.00;99.90;;;;;;4827778;29;20023;-81
2021/11/16 06:40:52;;;;;;;151.35;71.60;;;8.00;99.90;;;;;;4809099;29;20058;-81
2021/11/16 06:43:23;;;;;;;149.90;71.43;;;8.00;99.90;;;;;;4823017;29;20039;-81
2021/11/16 06:45:54;;;;;;;147.20;70.70;;;8.00;99.90;;;;;;4810555;29;20058;-81
2021/11/16 06:48:21;;;;;;;141.70;71.65;;;8.00;99.90;;;;;;4815762;29;20050;-81
2021/11/16 06:50:48;;;;;;;147.33;69.03;;;8.10;99.90;;;;;;4830441;29;20038;-81
2021/11/16 06:53:21;;;;;;;139.40;68.38;;;8.10;99.90;;;;;;4829230;29;20035;-81
2021/11/16 06:55:47;;;;;;;147.20;69.97;;;8.10;99.90;;;;;;4829736;29;20049;-80
2021/11/16 06:58:13;;;;;;;132.07;67.15;;;8.10;99.90;;;;;;4815849;29;20026;-81
2021/11/16 07:00:38;;;;;;;145.27;70.75;;;8.10;99.90;;;;;;4801177;29;20068;-81
2021/11/16 07:03:05;;;;;;;140.15;68.28;;;8.10;99.90;;;;;;4815405;29;20029;-81
2021/11/16 07:05:31;;;;;;;133.75;66.63;;;8.20;99.90;;;;;;4824341;29;20212;-81
2021/11/16 07:07:57;;;;;;;130.23;64.70;;;8.20;99.90;;;;;;4830573;29;20046;-81
2021/11/16 07:10:31;;;;;;;130.77;64.23;;;8.20;99.90;;;;;;4819850;29;20385;-81
2021/11/16 07:13:08;;;;;;;130.65;65.35;;;8.30;99.90;;;;;;4816329;29;20236;-80
2021/11/16 07:15:35;;;;;;;139.43;66.22;;;8.20;99.90;;;;;;4825956;29;20029;-81
2021/11/16 07:18:03;;;;;;;132.95;65.53;;;8.30;99.90;;;;;;4821740;29;20326;-81
2021/11/16 07:20:30;;;;;;;120.60;65.57;;;8.30;99.90;;;;;;4810498;29;20022;-81
2021/11/16 07:22:56;;;;;;;124.78;65.20;;;8.40;99.90;;;;;;4827372;29;20340;-81
2021/11/16 07:25:23;;;;;;;125.78;65.55;;;8.50;99.90;;;;;;4796670;29;20042;-81
2021/11/16 07:27:54;;;;;;;125.28;61.17;;;8.50;99.90;;;;;;4828893;29;20039;-82
2021/11/16 07:30:35;;;;;;;129.70;62.83;;;8.50;99.90;;;;;;4827797;29;20118;-81
2021/11/16 07:33:09;;;;;;;115.40;61.78;;;8.60;99.90;;;;;;4827678;29;20039;-80
2021/11/16 07:35:35;;;;;;;121.05;61.75;;;8.60;99.90;;;;;;4829528;29;20136;-80
2021/11/16 07:38:05;;;;;;;109.97;59.25;;;8.70;99.90;;;;;;4813969;29;20146;-80
2021/11/16 07:40:33;;;;;;;114.85;58.25;;;8.70;99.90;;;;;;4831073;29;20370;-80
2021/11/16 07:43:04;;;;;;;104.85;56.75;;;8.80;99.90;;;;;;4821768;29;20344;-81
2021/11/16 07:45:41;;;;;;;108.32;59.38;;;8.80;99.90;;;;;;4808093;29;20036;-81
2021/11/16 07:48:18;;;;;;;111.78;59.78;;;8.90;99.90;;;;;;4831192;29;20038;-80
2021/11/16 07:50:57;;;;;;;106.93;58.92;;;8.90;99.90;;;;;;4844533;29;20230;-80
2021/11/16 07:53:24;;;;;;;111.13;56.33;;;9.00;99.90;;;;;;4827695;29;20622;-80
2021/11/16 07:55:53;;;;;;;112.30;56.63;;;9.00;99.90;;;;;;4816659;29;20067;-80
2021/11/16 07:58:22;;;;;;;102.22;54.78;;;9.00;99.90;;;;;;4828299;29;20041;-80
2021/11/16 08:00:49;;;;;;;103.65;55.42;;;9.10;99.90;;;;;;4824758;29;20091;-81
2021/11/16 08:03:22;;;;;;;120.90;62.42;;;9.10;99.90;;;;;;4806212;29;20034;-81
2021/11/16 08:10:49;;;;;;;120.38;60.42;;;9.20;99.90;;;;;;4840776;29;20290;-80
2021/11/16 08:13:19;;;;;;;160.07;76.28;;;9.20;99.90;;;;;;4811819;29;20030;-80
2021/11/16 08:15:45;;;;;;;160.43;78.55;;;9.20;99.90;;;;;;4817240;29;20038;-80
2021/11/16 08:18:14;;;;;;;167.93;80.43;;;9.20;99.90;;;;;;4828026;29;20026;-80
2021/11/16 08:20:41;;;;;;;130.65;65.85;;;9.20;99.90;;;;;;4810340;29;20038;-80
2021/11/16 08:23:08;;;;;;;139.27;69.82;;;9.30;99.90;;;;;;4832517;29;20310;-79
2021/11/16 08:25:36;;;;;;;126.10;65.10;;;9.40;99.90;;;;;;4797369;29;20049;-80
2021/11/16 08:28:04;;;;;;;93.97;49.53;;;9.50;99.90;;;;;;4828703;29;20056;-79
2021/11/16 08:30:35;;;;;;;91.00;48.38;;;9.60;99.90;;;;;;4846512;29;20411;-80
2021/11/16 08:33:02;;;;;;;79.40;47.35;;;9.60;99.90;;;;;;4829517;29;20035;-80
2021/11/16 08:35:28;;;;;;;81.82;45.92;;;9.70;99.90;;;;;;4827650;29;20027;-80
2021/11/16 08:38:00;;;;;;;82.13;47.50;;;9.70;99.70;;;;;;4824581;29;20344;-81
2021/11/16 08:40:32;;;;;;;79.53;44.13;;;9.80;99.70;;;;;;4815324;29;20026;-80
2021/11/16 08:43:12;;;;;;;77.90;43.45;;;9.90;99.50;;;;;;4826961;29;20326;-80
2021/11/16 08:45:44;;;;;;;74.35;42.05;;;9.90;99.10;;;;;;4820060;29;20050;-80
2021/11/16 08:48:13;;;;;;;81.03;44.65;;;10.00;98.20;;;;;;4817538;29;20055;-80
2021/11/16 08:50:46;;;;;;;71.35;41.13;;;10.00;98.00;;;;;;4813865;29;20038;-80
2021/11/16 08:53:23;;;;;;;71.65;38.70;;;10.10;98.10;;;;;;4832010;29;20066;-80
2021/11/16 08:55:49;;;;;;;73.07;39.83;;;10.30;98.00;;;;;;4847562;29;20054;-80
2021/11/16 08:58:16;;;;;;;70.65;37.38;;;10.40;97.20;;;;;;4817615;29;20030;-80
2021/11/16 09:00:57;;;;;;;69.97;39.53;;;10.50;97.00;;;;;;4833904;29;20034;-80
2021/11/16 09:03:29;;;;;;;61.45;36.67;;;10.50;96.20;;;;;;4833070;29;20232;-78
2021/11/16 09:05:57;;;;;;;63.17;38.50;;;10.50;96.00;;;;;;4831862;29;20055;-80
2021/11/16 09:08:26;;;;;;;58.42;35.42;;;10.60;96.30;;;;;;4831724;29;20105;-80
2021/11/16 09:11:18;;;;;;;70.22;36.10;;;10.70;95.60;;;;;;4833442;29;20372;-81
2021/11/16 09:13:46;;;;;;;60.17;32.80;;;10.80;95.10;;;;;;4829897;29;20058;-81
2021/11/16 09:16:21;;;;;;;55.65;33.50;;;10.70;94.50;;;;;;4832326;29;20296;-81
2021/11/16 09:18:53;;;;;;;59.53;32.80;;;10.70;94.20;;;;;;4832880;29;20206;-81
2021/11/16 09:21:22;;;;;;;54.50;32.65;;;10.60;94.20;;;;;;4831142;29;20026;-81
2021/11/16 09:23:51;;;;;;;57.75;33.05;;;10.60;93.80;;;;;;4802445;29;20027;-81
2021/11/16 09:26:36;;;;;;;57.17;32.80;;;10.60;93.80;;;;;;4816917;29;20333;-80
2021/11/16 09:29:01;;;;;;;59.53;31.25;;;10.70;93.20;;;;;;4831792;29;20101;-80
2021/11/16 09:31:30;;;;;;;51.65;30.13;;;10.60;93.60;;;;;;4831605;29;20260;-79
2021/11/16 09:34:20;;;;;;;53.42;29.48;;;10.70;92.90;;;;;;4830805;29;20038;-80
2021/11/16 09:37:05;;;;;;;51.63;29.92;;;10.70;92.50;;;;;;4830183;29;20042;-80
2021/11/16 09:39:43;;;;;;;51.88;28.98;;;10.80;92.50;;;;;;4832480;29;20038;-79
2021/11/16 09:42:13;;;;;;;47.58;28.10;;;10.80;92.60;;;;;;4804926;29;20365;-80
2021/11/16 09:44:49;;;;;;;49.67;29.65;;;10.90;91.90;;;;;;4847417;29;20037;-80
2021/11/16 09:47:23;;;;;;;50.25;28.38;;;10.90;91.80;;;;;;4830902;29;20061;-79
2021/11/16 09:49:51;;;;;;;52.17;27.20;;;10.90;91.80;;;;;;4831904;29;20031;-79
2021/11/16 09:52:28;;;;;;;49.13;28.75;;;11.00;91.40;;;;;;4845829;29;20090;-78
2021/11/16 09:54:59;;;;;;;50.70;26.70;;;11.00;91.30;;;;;;4830147;29;20324;-80
2021/11/16 09:57:35;;;;;;;48.13;26.70;;;11.10;91.00;;;;;;4831570;29;20038;-80
2021/11/16 10:00:08;;;;;;;47.60;27.40;;;11.00;90.80;;;;;;4817444;29;20065;-80
2021/11/16 10:02:35;;;;;;;46.75;26.88;;;10.90;90.50;;;;;;4831947;29;20269;-80
2021/11/16 10:05:08;;;;;;;47.70;27.42;;;10.90;90.80;;;;;;4816644;29;20031;-81
2021/11/16 10:07:35;;;;;;;50.33;26.75;;;10.80;91.00;;;;;;4829286;29;20329;-79
2021/11/16 10:10:02;;;;;;;55.90;28.90;;;10.80;91.10;;;;;;4833255;29;20277;-79
2021/11/16 10:12:47;;;;;;;51.58;26.90;;;10.80;91.40;;;;;;4829326;29;20086;-81
2021/11/16 10:15:14;;;;;;;50.22;27.90;;;10.80;91.20;;;;;;4814973;29;20038;-81
2021/11/16 10:17:44;;;;;;;47.97;27.73;;;10.80;91.20;;;;;;4831594;29;20033;-80
2021/11/16 10:20:12;;;;;;;44.55;25.95;;;10.90;91.40;;;;;;4814405;29;20057;-80
2021/11/16 10:22:45;;;;;;;48.00;26.83;;;10.90;91.40;;;;;;4801685;29;20093;-80
2021/11/16 10:25:17;;;;;;;47.53;27.58;;;10.90;91.40;;;;;;4830665;29;20073;-80
2021/11/16 10:27:45;;;;;;;46.00;25.75;;;10.90;91.20;;;;;;4831682;29;20258;-81
2021/11/16 10:30:26;;;;;;;57.25;27.45;;;11.00;90.60;;;;;;4830460;29;20042;-80
2021/11/16 10:33:13;;;;;;;42.78;25.08;;;11.00;90.70;;;;;;4828353;29;20397;-80
2021/11/16 10:36:09;;;;;;;41.30;25.00;;;11.10;91.00;;;;;;4815110;29;20034;-81
2021/11/16 10:38:41;;;;;;;40.63;25.87;;;11.20;90.50;;;;;;4831705;29;20101;-80
2021/11/16 10:41:16;;;;;;;45.95;25.10;;;11.20;90.40;;;;;;4805484;29;20062;-80
2021/11/16 10:43:48;;;;;;;44.47;26.73;;;11.30;90.20;;;;;;4815727;29;20022;-80
2021/11/16 10:46:18;;;;;;;42.50;24.73;;;11.40;90.20;;;;;;4835042;29;20065;-80
2021/11/16 10:48:47;;;;;;;40.10;25.23;;;11.40;90.40;;;;;;4832334;29;20029;-80
2021/11/16 10:51:16;;;;;;;42.00;24.65;;;11.40;89.80;;;;;;4832237;29;20083;-80
2021/11/16 10:53:51;;;;;;;38.47;24.60;;;11.50;90.10;;;;;;4845658;29;20057;-80
2021/11/16 10:56:21;;;;;;;44.42;25.58;;;11.40;88.00;;;;;;4830844;29;20038;-81
2021/11/16 10:58:48;;;;;;;45.78;24.98;;;11.30;89.40;;;;;;4831287;29;20057;-80
2021/11/16 11:01:23;;;;;;;44.53;25.17;;;11.40;89.80;;;;;;4811933;29;20038;-81
2021/11/16 11:03:54;;;;;;;44.03;25.13;;;11.40;88.90;;;;;;4800624;29;20292;-81
2021/11/16 11:06:26;;;;;;;49.67;25.00;;;11.40;89.00;;;;;;4816741;29;20042;-81
2021/11/16 11:08:58;;;;;;;46.30;25.88;;;11.40;89.10;;;;;;4845464;29;20030;-81
2021/11/16 11:11:29;;;;;;;40.08;25.00;;;11.50;88.30;;;;;;4829704;29;20030;-80
2021/11/16 11:14:21;;;;;;;43.30;24.88;;;11.50;88.90;;;;;;4817349;29;20402;-81
2021/11/16 11:16:54;;;;;;;40.15;23.52;;;11.50;87.90;;;;;;4837126;29;20049;-81
2021/11/16 11:19:41;;;;;;;43.63;23.08;;;11.60;87.70;;;;;;4836889;29;20042;-81
2021/11/16 11:22:23;;;;;;;41.97;22.83;;;11.50;87.20;;;;;;4820692;29;20054;-81
2021/11/16 11:27:44;;;;;;;39.78;22.25;;;11.60;86.70;;;;;;4856130;29;20049;-81
2021/11/16 11:30:17;;;;;;;37.45;21.25;;;11.70;86.30;;;;;;4852504;29;20034;-81
2021/11/16 11:32:45;;;;;;;37.90;22.23;;;11.80;86.70;;;;;;4819314;29;20369;-81
2021/11/16 11:35:18;;;;;;;39.00;20.35;;;11.80;86.40;;;;;;4817651;29;20065;-81
2021/11/16 11:37:52;;;;;;;39.25;20.73;;;11.80;86.10;;;;;;4836207;29;20045;-80
2021/11/16 11:40:25;;;;;;;43.47;21.10;;;11.90;85.60;;;;;;4833486;29;20049;-80
2021/11/16 11:42:58;;;;;;;34.58;20.60;;;11.80;84.50;;;;;;4817728;29;20097;-80
2021/11/16 11:45:29;;;;;;;33.60;20.65;;;11.80;85.60;;;;;;4852249;29;20057;-80
2021/11/16 11:48:00;;;;;;;41.92;25.92;;;11.80;84.10;;;;;;4847658;29;20064;-80
2021/11/16 11:50:46;;;;;;;36.63;21.67;;;11.80;85.00;;;;;;4836633;29;20342;-80
2021/11/16 11:53:23;;;;;;;32.85;20.45;;;11.90;85.10;;;;;;4833140;29;20038;-80
2021/11/16 11:55:49;;;;;;;35.20;20.75;;;12.00;85.10;;;;;;4828253;29;20241;-81
2021/11/16 11:58:17;;;;;;;35.97;20.20;;;12.10;84.90;;;;;;4834249;29;20066;-80
2021/11/16 12:00:45;;;;;;;33.10;20.20;;;12.00;84.40;;;;;;4803174;29;20026;-80
2021/11/16 12:03:11;;;;;;;34.42;19.42;;;12.00;83.80;;;;;;4819391;29;20215;-80
2021/11/16 12:05:41;;;;;;;36.95;21.83;;;12.00;83.60;;;;;;4833715;29;20046;-80
2021/11/16 12:08:09;;;;;;;39.63;21.33;;;12.00;83.90;;;;;;4820574;29;20338;-80
2021/11/16 12:10:37;;;;;;;35.58;20.33;;;12.00;83.70;;;;;;4833893;29;20344;-80
2021/11/16 12:13:05;;;;;;;45.20;23.30;;;12.00;84.80;;;;;;4811382;29;20195;-80
2021/11/16 12:15:47;;;;;;;33.28;20.95;;;12.00;84.50;;;;;;4803894;29;20041;-80
2021/11/16 12:18:14;;;;;;;41.75;20.25;;;12.00;84.50;;;;;;4828579;29;20325;-80
2021/11/16 12:20:53;;;;;;;39.60;21.35;;;12.00;83.50;;;;;;4830723;29;20030;-80
2021/11/16 12:23:47;;;;;;;36.40;20.80;;;12.00;83.80;;;;;;4826802;29;20578;-80
2021/11/16 12:26:14;;;;;;;32.17;19.38;;;11.90;84.00;;;;;;4830368;29;20022;-80
2021/11/16 12:28:41;;;;;;;;;;;11.80;84.00;;;;;;4818497;29;20054;-80
2021/11/16 12:31:29;;;;;;;40.50;19.42;;;11.80;84.10;;;;;;4829187;29;19909;-80
2021/11/16 12:33:57;;;;;;;34.55;21.35;;;11.90;84.50;;;;;;4841396;29;20256;-80
2021/11/16 12:36:32;;;;;;;28.60;19.05;;;11.80;83.50;;;;;;4831798;29;20329;-80
2021/11/16 12:39:18;;;;;;;38.20;18.63;;;11.80;83.80;;;;;;4829644;29;20356;-81
2021/11/16 12:41:51;;;;;;;35.70;19.80;;;11.80;82.80;;;;;;4815485;29;20349;-81
2021/11/16 12:44:41;;;;;;;35.67;19.48;;;11.80;84.00;;;;;;4844385;29;20249;-80
2021/11/16 12:47:11;;;;;;;35.38;17.77;;;11.80;82.90;;;;;;4806915;29;20058;-80
2021/11/16 12:49:40;;;;;;;34.90;18.08;;;11.80;83.40;;;;;;4827624;29;20036;-81
2021/11/16 12:52:08;;;;;;;28.83;18.13;;;11.80;83.20;;;;;;4809827;29;20045;-81
2021/11/16 12:54:36;;;;;;;28.40;17.30;;;11.80;83.30;;;;;;4811049;29;20034;-80
2021/11/16 12:57:02;;;;;;;29.83;18.02;;;11.80;84.00;;;;;;4826718;29;20122;-81
2021/11/16 12:59:34;;;;;;;34.55;17.33;;;11.70;83.10;;;;;;4813438;29;20034;-81
2021/11/16 13:02:03;;;;;;;37.20;18.95;;;11.70;83.60;;;;;;4815547;29;20098;-81
2021/11/16 13:04:43;;;;;;;36.72;18.85;;;11.70;83.90;;;;;;4819569;29;20026;-81
2021/11/16 13:07:19;;;;;;;28.15;17.48;;;11.60;84.20;;;;;;4818294;29;20123;-81
2021/11/16 13:10:04;;;;;;;32.70;19.53;;;11.60;84.70;;;;;;4810888;29;20046;-81
2021/11/16 13:12:33;;;;;;;31.23;18.40;;;11.60;85.10;;;;;;4812106;29;20602;-81
2021/11/16 13:15:01;;;;;;;33.40;18.55;;;11.60;85.50;;;;;;4804977;29;20053;-81
2021/11/16 13:17:51;;;;;;;36.83;21.05;;;11.60;84.80;;;;;;4794975;29;20083;-81
2021/11/16 13:20:54;;;;;;;40.80;20.42;;;11.60;85.30;;;;;;4817273;29;20037;-80
2021/11/16 13:23:22;;;;;;;35.15;19.38;;;11.60;84.80;;;;;;4780606;30;20245;-80
2021/11/16 13:25:48;;;;;;;32.30;18.70;;;11.50;84.60;;;;;;4760910;29;20053;-80
2021/11/16 13:31:06;;;;;;;41.10;20.10;;;11.50;85.10;;;;;;4794504;29;20076;-80
2021/11/16 13:33:50;;;;;;;70.25;35.95;;;11.40;84.90;;;;;;4779171;30;20278;-80
2021/11/16 13:36:25;;;;;;;30.52;17.38;;;11.40;84.80;;;;;;4791825;29;20342;-80
2021/11/16 13:38:51;;;;;;;32.85;18.80;;;11.40;84.40;;;;;;4778981;29;20054;-80
2021/11/16 13:41:38;;;;;;;30.23;17.98;;;11.40;84.50;;;;;;4782837;29;20043;-79
2021/11/16 13:44:33;;;;;;;36.22;17.05;;;11.30;84.50;;;;;;4811403;29;20157;-81
2021/11/16 13:47:15;;;;;;;29.30;17.17;;;11.30;84.40;;;;;;4768826;30;20054;-81
2021/11/16 13:49:51;;;;;;;28.70;17.00;;;11.30;84.20;;;;;;4764702;30;20035;-81
2021/11/16 13:52:33;;;;;;;34.50;19.65;;;11.30;84.10;;;;;;4797436;29;20095;-81
2021/11/16 13:55:01;;;;;;;36.25;20.45;;;11.30;84.50;;;;;;4795997;29;20031;-81
2021/11/16 13:57:30;;;;;;;53.15;27.75;;;11.20;84.70;;;;;;4780738;29;20277;-81
2021/11/16 14:00:16;;;;;;;64.57;31.73;;;11.20;84.80;;;;;;4816615;29;20034;-81
2021/11/16 14:03:00;;;;;;;81.30;43.22;;;11.20;85.10;;;;;;4812612;29;20263;-80
2021/11/16 14:05:56;;;;;;;50.00;32.88;;;11.20;85.30;;;;;;4846852;29;20030;-81
2021/11/16 14:08:33;;;;;;;27.92;16.73;;;11.10;85.40;;;;;;4824141;29;20088;-81
2021/11/16 14:11:01;;;;;;;30.05;17.10;;;11.10;84.90;;;;;;4807827;29;20049;-81
2021/11/16 14:13:29;;;;;;;28.67;17.77;;;11.10;85.00;;;;;;4794172;29;20049;-81
2021/11/16 14:16:06;;;;;;;33.42;17.67;;;11.00;85.50;;;;;;4818688;29;20031;-81
2021/11/16 14:18:35;;;;;;;33.33;18.25;;;11.00;85.70;;;;;;4821542;29;20050;-81
2021/11/16 14:21:06;;;;;;;33.78;17.02;;;11.00;85.60;;;;;;4797321;29;20031;-81
2021/11/16 14:23:34;;;;;;;39.38;18.20;;;10.90;85.70;;;;;;4814749;29;20034;-81
2021/11/16 14:26:04;;;;;;;35.50;18.63;;;10.90;85.40;;;;;;4807555;29;20034;-80
2021/11/16 14:28:33;;;;;;;29.27;18.90;;;10.90;84.90;;;;;;4798295;29;20034;-79
2021/11/16 14:31:09;;;;;;;26.92;17.67;;;10.90;84.80;;;;;;4810987;29;20041;-79
2021/11/16 14:33:43;;;;;;;31.48;17.45;;;10.90;84.70;;;;;;4818861;29;20092;-80
2021/11/16 14:36:09;;;;;;;36.38;19.60;;;10.90;84.70;;;;;;4813057;29;20066;-81
2021/11/16 14:38:41;;;;;;;34.17;18.08;;;10.80;85.10;;;;;;4809592;29;20045;-80
2021/11/16 14:41:18;;;;;;;30.33;18.45;;;10.80;85.20;;;;;;4795433;29;20094;-80
2021/11/16 14:43:46;;;;;;;31.05;19.13;;;10.70;85.40;;;;;;4793074;29;20349;-80
2021/11/16 14:46:19;;;;;;;35.17;18.92;;;10.70;85.60;;;;;;4810753;29;20042;-79
2021/11/16 14:48:55;;;;;;;38.58;17.73;;;10.70;85.60;;;;;;4831275;29;20341;-79
2021/11/16 14:51:31;;;;;;;32.97;18.80;;;10.70;86.20;;;;;;4831495;29;20034;-80
2021/11/16 14:54:00;;;;;;;66.00;28.33;;;10.60;86.40;;;;;;4829330;29;20230;-81
2021/11/16 14:56:33;;;;;;;32.55;19.75;;;10.60;86.70;;;;;;4846415;29;20148;-81
2021/11/16 14:59:10;;;;;;;44.92;19.95;;;10.60;86.80;;;;;;4829682;29;20022;-81
2021/11/16 15:01:44;;;;;;;33.28;19.65;;;10.60;87.10;;;;;;4832666;29;20321;-81
2021/11/16 15:04:16;;;;;;;34.97;19.98;;;10.60;87.40;;;;;;4830944;29;20224;-81
2021/11/16 15:06:42;;;;;;;42.00;22.35;;;10.50;87.60;;;;;;4830440;29;20329;-81
2021/11/16 15:09:09;;;;;;;40.63;19.30;;;10.50;88.00;;;;;;4815055;29;20080;-81
2021/11/16 15:11:37;;;;;;;35.30;19.85;;;10.40;88.40;;;;;;4830304;29;20042;-81
2021/11/16 15:14:09;;;;;;;35.28;19.63;;;10.40;88.70;;;;;;4800736;29;20061;-81
2021/11/16 15:16:38;;;;;;;39.85;22.75;;;10.30;88.80;;;;;;4827237;29;20042;-81
2021/11/16 15:19:14;;;;;;;35.83;20.95;;;10.30;89.20;;;;;;4826820;29;20079;-80
2021/11/16 15:22:07;;;;;;;33.08;20.80;;;10.30;89.60;;;;;;4827856;29;20037;-80
2021/11/16 15:24:53;;;;;;;33.03;20.13;;;10.20;89.90;;;;;;4810567;29;20041;-80
2021/11/16 15:27:31;;;;;;;39.50;21.35;;;10.20;90.00;;;;;;4847157;29;20041;-80
2021/11/16 15:30:15;;;;;;;35.80;20.90;;;10.20;90.20;;;;;;4839265;29;20132;-80
2021/11/16 15:32:56;;;;;;;36.10;21.10;;;10.10;90.40;;;;;;4829661;29;20037;-80
2021/11/16 15:35:41;;;;;;;34.95;20.77;;;10.10;90.50;;;;;;4831062;29;20042;-80
2021/11/16 15:38:09;;;;;;;33.78;20.13;;;10.00;90.60;;;;;;4816138;29;20203;-80
2021/11/16 15:40:35;;;;;;;37.88;21.02;;;10.00;90.70;;;;;;4814539;29;20279;-82
2021/11/16 15:43:17;;;;;;;36.35;22.17;;;10.00;90.80;;;;;;4829222;29;20056;-81
2021/11/16 15:45:55;;;;;;;47.50;22.30;;;10.00;90.90;;;;;;4837874;29;20041;-80
2021/11/16 15:48:26;;;;;;;43.65;23.83;;;10.00;91.00;;;;;;4816755;29;20057;-80
2021/11/16 15:59:06;;;;;;;42.55;24.27;;;9.90;91.50;;;;;;4822637;29;20286;-82
2021/11/16 16:01:35;;;;;;;45.83;24.95;;;9.80;91.60;;;;;;4817803;29;20046;-80
2021/11/16 16:04:03;;;;;;;46.63;24.60;;;9.80;91.70;;;;;;4817350;29;20035;-81
2021/11/16 16:06:37;;;;;;;41.22;21.83;;;9.70;91.80;;;;;;4819933;29;20042;-81
2021/11/16 16:09:17;;;;;;;44.97;23.92;;;9.70;91.90;;;;;;4817986;29;20199;-81
2021/11/16 16:11:57;;;;;;;44.22;24.23;;;9.70;92.00;;;;;;4813345;29;20334;-81
2021/11/16 16:14:36;;;;;;;40.20;23.63;;;9.70;92.10;;;;;;4817057;29;20184;-80
2021/11/16 16:17:09;;;;;;;48.67;24.08;;;9.60;92.20;;;;;;4797952;29;20065;-81
2021/11/16 16:19:41;;;;;;;41.72;24.15;;;9.60;92.30;;;;;;4812221;29;20038;-81
2021/11/16 16:22:15;;;;;;;41.65;22.80;;;9.60;92.30;;;;;;4817654;29;20038;-81
2021/11/16 16:24:42;;;;;;;42.65;21.65;;;9.60;92.40;;;;;;4803636;29;20045;-82
2021/11/16 16:27:09;;;;;;;51.70;25.63;;;9.50;92.60;;;;;;4832476;29;20070;-80
2021/11/16 16:29:36;;;;;;;38.67;21.85;;;9.50;92.70;;;;;;4818398;29;20034;-81
2021/11/16 16:32:02;;;;;;;48.47;25.40;;;9.50;92.70;;;;;;4833617;29;20034;-80
2021/11/16 16:34:29;;;;;;;114.18;51.97;;;9.50;92.90;;;;;;4803158;29;20099;-80
2021/11/16 16:36:58;;;;;;;89.15;45.15;;;9.50;93.00;;;;;;4815682;29;20087;-82
2021/11/16 16:39:25;;;;;;;102.63;51.35;;;9.40;93.00;;;;;;4833186;29;20038;-81
2021/11/16 16:41:51;;;;;;;;;;;9.50;93.10;;;;;;4818450;29;20041;-81
2021/11/16 16:44:18;;;;;;;46.57;26.17;;;9.30;93.20;;;;;;4829001;29;19913;-81
2021/11/16 16:46:51;;;;;;;52.92;34.75;;;9.30;93.60;;;;;;4819876;29;20078;-81
2021/11/16 16:49:16;;;;;;;49.58;29.50;;;9.30;93.40;;;;;;4833170;29;20034;-81
2021/11/16 16:51:44;;;;;;;117.53;66.38;;;9.30;93.40;;;;;;4834580;29;20046;-80
2021/11/16 16:54:12;;;;;;;151.20;87.82;;;9.30;93.40;;;;;;4834308;29;20030;-80
2021/11/16 16:56:39;;;;;;;95.53;52.53;;;9.30;93.40;;;;;;4833104;29;20050;-80
2021/11/16 16:59:14;;;;;;;86.47;47.83;;;9.30;93.50;;;;;;4828459;29;20034;-81
2021/11/16 17:01:45;;;;;;;95.00;52.78;;;9.30;93.60;;;;;;4820745;29;20117;-82
2021/11/16 17:04:15;;;;;;;76.60;44.95;;;9.30;93.60;;;;;;4832879;29;20022;-80
2021/11/16 17:06:40;;;;;;;60.10;34.72;;;9.20;93.60;;;;;;4842507;29;20039;-81